sensor_id;sensor_type;location;lat;lon;timestamp;P1;durP1;ratioP1;P2;durP2;ratioP2
18249;SDS011;27980;52.126;5.572;2023-04-03T00:00:55;1.50;;;0.90;;
18249;SDS011;27980;52.126;5.572;2023-04-03T00:03:21;0.80;;;0.80;;
18249;SDS011;27980;52.126;5.572;2023-04-03T00:05:48;0.85;;;0.85;;
18249;SDS011;27980;52.126;5.572;2023-04-03T00:08:16;1.17;;;1.00;;
18249;SDS011;27980;52.126;5.572;2023-04-03T00:10:42;1.00;;;0.98;;
18249;SDS011;27980;52.126;5.572;2023-04-03T00:13:09;1.15;;;1.00;;
18249;SDS011;27980;52.126;5.572;2023-04-03T00:15:37;1.13;;;1.02;;
18249;SDS011;27980;52.126;5.572;2023-04-03T00:18:04;1.30;;;1.10;;
18249;SDS011;27980;52.126;5.572;2023-04-03T00:20:30;1.30;;;0.80;;
18249;SDS011;27980;52.126;5.572;2023-04-03T00:22:57;1.65;;;0.90;;
18249;SDS011;27980;52.126;5.572;2023-04-03T00:25:23;1.02;;;0.93;;
18249;SDS011;27980;52.126;5.572;2023-04-03T00:27:50;0.95;;;0.95;;
18249;SDS011;27980;52.126;5.572;2023-04-03T00:30:17;1.25;;;1.10;;
18249;SDS011;27980;52.126;5.572;2023-04-03T00:32:46;2.08;;;0.93;;
18249;SDS011;27980;52.126;5.572;2023-04-03T00:35:13;0.98;;;0.90;;
18249;SDS011;27980;52.126;5.572;2023-04-03T00:37:40;4.43;;;1.60;;
18249;SDS011;27980;52.126;5.572;2023-04-03T00:40:07;1.25;;;1.00;;
18249;SDS011;27980;52.126;5.572;2023-04-03T00:42:35;0.98;;;0.90;;
18249;SDS011;27980;52.126;5.572;2023-04-03T00:47:48;1.35;;;0.82;;
18249;SDS011;27980;52.126;5.572;2023-04-03T00:50:14;2.25;;;1.50;;
18249;SDS011;27980;52.126;5.572;2023-04-03T00:52:41;2.40;;;1.15;;
18249;SDS011;27980;52.126;5.572;2023-04-03T00:55:08;2.13;;;1.35;;
18249;SDS011;27980;52.126;5.572;2023-04-03T00:57:35;1.17;;;1.08;;
18249;SDS011;27980;52.126;5.572;2023-04-03T01:00:03;1.08;;;0.98;;
18249;SDS011;27980;52.126;5.572;2023-04-03T01:02:31;0.95;;;0.85;;
18249;SDS011;27980;52.126;5.572;2023-04-03T01:04:58;2.60;;;1.45;;
18249;SDS011;27980;52.126;5.572;2023-04-03T01:07:27;1.02;;;0.93;;
18249;SDS011;27980;52.126;5.572;2023-04-03T01:09:55;1.05;;;1.00;;
18249;SDS011;27980;52.126;5.572;2023-04-03T01:12:24;0.82;;;0.80;;
18249;SDS011;27980;52.126;5.572;2023-04-03T01:14:51;1.58;;;1.10;;
18249;SDS011;27980;52.126;5.572;2023-04-03T01:17:26;1.25;;;1.08;;
18249;SDS011;27980;52.126;5.572;2023-04-03T01:19:55;1.70;;;0.90;;
18249;SDS011;27980;52.126;5.572;2023-04-03T01:22:29;1.30;;;1.02;;
18249;SDS011;27980;52.126;5.572;2023-04-03T01:24:57;1.00;;;0.90;;
18249;SDS011;27980;52.126;5.572;2023-04-03T01:27:24;1.95;;;1.10;;
18249;SDS011;27980;52.126;5.572;2023-04-03T01:29:51;0.98;;;0.90;;
18249;SDS011;27980;52.126;5.572;2023-04-03T01:32:18;1.13;;;1.13;;
18249;SDS011;27980;52.126;5.572;2023-04-03T01:34:45;1.42;;;1.20;;
18249;SDS011;27980;52.126;5.572;2023-04-03T01:37:11;1.80;;;1.20;;
18249;SDS011;27980;52.126;5.572;2023-04-03T01:39:37;1.35;;;1.10;;
18249;SDS011;27980;52.126;5.572;2023-04-03T01:42:04;1.35;;;1.25;;
18249;SDS011;27980;52.126;5.572;2023-04-03T01:44:30;0.90;;;0.90;;
18249;SDS011;27980;52.126;5.572;2023-04-03T01:46:57;2.00;;;1.00;;
18249;SDS011;27980;52.126;5.572;2023-04-03T01:49:24;1.63;;;1.05;;
18249;SDS011;27980;52.126;5.572;2023-04-03T01:51:51;0.90;;;0.90;;
18249;SDS011;27980;52.126;5.572;2023-04-03T01:54:17;2.67;;;1.52;;
18249;SDS011;27980;52.126;5.572;2023-04-03T01:56:43;1.48;;;1.05;;
18249;SDS011;27980;52.126;5.572;2023-04-03T01:59:10;1.13;;;1.00;;
18249;SDS011;27980;52.126;5.572;2023-04-03T02:01:36;4.20;;;1.17;;
18249;SDS011;27980;52.126;5.572;2023-04-03T02:04:03;1.05;;;0.95;;
18249;SDS011;27980;52.126;5.572;2023-04-03T02:06:31;3.60;;;1.17;;
18249;SDS011;27980;52.126;5.572;2023-04-03T02:08:57;2.40;;;1.20;;
18249;SDS011;27980;52.126;5.572;2023-04-03T02:11:24;1.92;;;1.23;;
18249;SDS011;27980;52.126;5.572;2023-04-03T02:13:50;1.65;;;1.00;;
18249;SDS011;27980;52.126;5.572;2023-04-03T02:16:16;5.88;;;1.77;;
18249;SDS011;27980;52.126;5.572;2023-04-03T02:18:43;1.27;;;1.17;;
18249;SDS011;27980;52.126;5.572;2023-04-03T02:21:09;4.47;;;1.10;;
18249;SDS011;27980;52.126;5.572;2023-04-03T02:23:37;1.23;;;1.13;;
18249;SDS011;27980;52.126;5.572;2023-04-03T02:26:04;0.90;;;0.90;;
18249;SDS011;27980;52.126;5.572;2023-04-03T02:28:31;1.80;;;1.38;;
18249;SDS011;27980;52.126;5.572;2023-04-03T02:30:57;2.60;;;1.40;;
18249;SDS011;27980;52.126;5.572;2023-04-03T02:33:23;1.88;;;1.15;;
18249;SDS011;27980;52.126;5.572;2023-04-03T02:35:52;2.72;;;1.33;;
18249;SDS011;27980;52.126;5.572;2023-04-03T02:38:18;1.60;;;1.33;;
18249;SDS011;27980;52.126;5.572;2023-04-03T02:40:46;3.20;;;1.20;;
18249;SDS011;27980;52.126;5.572;2023-04-03T02:43:13;1.83;;;1.40;;
18249;SDS011;27980;52.126;5.572;2023-04-03T02:45:39;1.42;;;1.33;;
18249;SDS011;27980;52.126;5.572;2023-04-03T02:48:06;1.85;;;1.55;;
18249;SDS011;27980;52.126;5.572;2023-04-03T02:50:32;1.73;;;1.30;;
18249;SDS011;27980;52.126;5.572;2023-04-03T02:52:58;2.75;;;1.30;;
18249;SDS011;27980;52.126;5.572;2023-04-03T02:55:25;1.23;;;1.13;;
18249;SDS011;27980;52.126;5.572;2023-04-03T02:57:53;6.90;;;1.63;;
18249;SDS011;27980;52.126;5.572;2023-04-03T03:00:19;3.67;;;1.63;;
18249;SDS011;27980;52.126;5.572;2023-04-03T03:02:46;1.20;;;1.10;;
18249;SDS011;27980;52.126;5.572;2023-04-03T03:05:12;2.08;;;1.45;;
18249;SDS011;27980;52.126;5.572;2023-04-03T03:07:39;0.95;;;0.95;;
18249;SDS011;27980;52.126;5.572;2023-04-03T03:10:05;1.40;;;1.20;;
18249;SDS011;27980;52.126;5.572;2023-04-03T03:12:32;1.45;;;1.30;;
18249;SDS011;27980;52.126;5.572;2023-04-03T03:15:00;1.60;;;1.45;;
18249;SDS011;27980;52.126;5.572;2023-04-03T03:17:26;4.15;;;1.30;;
18249;SDS011;27980;52.126;5.572;2023-04-03T03:19:53;3.20;;;1.30;;
18249;SDS011;27980;52.126;5.572;2023-04-03T03:22:19;2.22;;;1.60;;
18249;SDS011;27980;52.126;5.572;2023-04-03T03:24:46;1.20;;;1.20;;
18249;SDS011;27980;52.126;5.572;2023-04-03T03:27:12;1.30;;;1.10;;
18249;SDS011;27980;52.126;5.572;2023-04-03T03:29:38;4.50;;;1.20;;
18249;SDS011;27980;52.126;5.572;2023-04-03T03:32:06;2.15;;;1.10;;
18249;SDS011;27980;52.126;5.572;2023-04-03T03:34:34;2.55;;;1.10;;
18249;SDS011;27980;52.126;5.572;2023-04-03T03:37:00;2.25;;;1.27;;
18249;SDS011;27980;52.126;5.572;2023-04-03T03:39:27;1.63;;;1.40;;
18249;SDS011;27980;52.126;5.572;2023-04-03T03:41:53;3.55;;;1.02;;
18249;SDS011;27980;52.126;5.572;2023-04-03T03:44:19;2.25;;;1.80;;
18249;SDS011;27980;52.126;5.572;2023-04-03T03:46:46;1.65;;;1.50;;
18249;SDS011;27980;52.126;5.572;2023-04-03T03:49:14;1.30;;;1.20;;
18249;SDS011;27980;52.126;5.572;2023-04-03T03:51:40;1.65;;;1.45;;
18249;SDS011;27980;52.126;5.572;2023-04-03T03:54:07;4.85;;;1.25;;
18249;SDS011;27980;52.126;5.572;2023-04-03T03:56:33;1.38;;;1.20;;
18249;SDS011;27980;52.126;5.572;2023-04-03T03:58:59;1.80;;;1.20;;
18249;SDS011;27980;52.126;5.572;2023-04-03T04:01:26;1.50;;;1.40;;
18249;SDS011;27980;52.126;5.572;2023-04-03T04:03:52;1.20;;;1.13;;
18249;SDS011;27980;52.126;5.572;2023-04-03T04:06:21;1.38;;;1.23;;
18249;SDS011;27980;52.126;5.572;2023-04-03T04:08:47;1.27;;;1.17;;
18249;SDS011;27980;52.126;5.572;2023-04-03T04:11:14;0.90;;;0.90;;
18249;SDS011;27980;52.126;5.572;2023-04-03T04:13:40;1.50;;;1.40;;
18249;SDS011;27980;52.126;5.572;2023-04-03T04:16:07;2.88;;;1.23;;
18249;SDS011;27980;52.126;5.572;2023-04-03T04:18:34;1.48;;;1.38;;
18249;SDS011;27980;52.126;5.572;2023-04-03T04:21:01;1.25;;;1.15;;
18249;SDS011;27980;52.126;5.572;2023-04-03T04:23:28;1.40;;;1.27;;
18249;SDS011;27980;52.126;5.572;2023-04-03T04:25:55;3.10;;;1.08;;
18249;SDS011;27980;52.126;5.572;2023-04-03T04:28:21;3.17;;;1.63;;
18249;SDS011;27980;52.126;5.572;2023-04-03T04:30:48;2.03;;;1.42;;
18249;SDS011;27980;52.126;5.572;2023-04-03T04:33:14;1.77;;;1.30;;
18249;SDS011;27980;52.126;5.572;2023-04-03T04:35:42;1.52;;;1.17;;
18249;SDS011;27980;52.126;5.572;2023-04-03T04:38:09;6.45;;;1.20;;
18249;SDS011;27980;52.126;5.572;2023-04-03T04:40:37;1.63;;;1.38;;
18249;SDS011;27980;52.126;5.572;2023-04-03T04:43:03;2.40;;;1.40;;
18249;SDS011;27980;52.126;5.572;2023-04-03T04:45:30;1.83;;;1.30;;
18249;SDS011;27980;52.126;5.572;2023-04-03T04:47:56;4.75;;;1.95;;
18249;SDS011;27980;52.126;5.572;2023-04-03T04:50:22;5.30;;;1.67;;
18249;SDS011;27980;52.126;5.572;2023-04-03T04:52:49;1.60;;;1.33;;
18249;SDS011;27980;52.126;5.572;2023-04-03T04:55:15;1.77;;;1.30;;
18249;SDS011;27980;52.126;5.572;2023-04-03T04:57:43;2.40;;;1.38;;
18249;SDS011;27980;52.126;5.572;2023-04-03T05:00:10;4.30;;;1.77;;
18249;SDS011;27980;52.126;5.572;2023-04-03T05:02:37;1.70;;;1.20;;
18249;SDS011;27980;52.126;5.572;2023-04-03T05:05:03;4.30;;;1.65;;
18249;SDS011;27980;52.126;5.572;2023-04-03T05:07:30;4.70;;;1.50;;
18249;SDS011;27980;52.126;5.572;2023-04-03T05:09:56;1.20;;;1.10;;
18249;SDS011;27980;52.126;5.572;2023-04-03T05:12:24;1.58;;;1.48;;
18249;SDS011;27980;52.126;5.572;2023-04-03T05:14:51;2.13;;;1.60;;
18249;SDS011;27980;52.126;5.572;2023-04-03T05:17:18;3.10;;;1.75;;
18249;SDS011;27980;52.126;5.572;2023-04-03T05:19:50;4.60;;;1.83;;
18249;SDS011;27980;52.126;5.572;2023-04-03T05:22:19;2.78;;;1.52;;
18249;SDS011;27980;52.126;5.572;2023-04-03T05:24:46;1.42;;;1.20;;
18249;SDS011;27980;52.126;5.572;2023-04-03T05:27:12;1.25;;;1.10;;
18249;SDS011;27980;52.126;5.572;2023-04-03T05:29:39;1.77;;;1.40;;
18249;SDS011;27980;52.126;5.572;2023-04-03T05:32:10;4.82;;;1.40;;
18249;SDS011;27980;52.126;5.572;2023-04-03T05:34:36;1.88;;;1.25;;
18249;SDS011;27980;52.126;5.572;2023-04-03T05:37:05;1.30;;;1.20;;
18249;SDS011;27980;52.126;5.572;2023-04-03T05:39:32;1.45;;;1.35;;
18249;SDS011;27980;52.126;5.572;2023-04-03T05:41:58;2.03;;;1.50;;
18249;SDS011;27980;52.126;5.572;2023-04-03T05:44:25;3.53;;;1.38;;
18249;SDS011;27980;52.126;5.572;2023-04-03T05:46:51;2.67;;;1.13;;
18249;SDS011;27980;52.126;5.572;2023-04-03T05:49:19;1.50;;;1.20;;
18249;SDS011;27980;52.126;5.572;2023-04-03T05:51:46;6.85;;;2.03;;
18249;SDS011;27980;52.126;5.572;2023-04-03T05:54:16;1.48;;;1.20;;
18249;SDS011;27980;52.126;5.572;2023-04-03T05:56:43;3.72;;;2.38;;
18249;SDS011;27980;52.126;5.572;2023-04-03T05:59:10;1.73;;;1.33;;
18249;SDS011;27980;52.126;5.572;2023-04-03T06:01:37;3.17;;;2.13;;
18249;SDS011;27980;52.126;5.572;2023-04-03T06:04:03;3.10;;;1.55;;
18249;SDS011;27980;52.126;5.572;2023-04-03T06:06:43;1.73;;;1.30;;
18249;SDS011;27980;52.126;5.572;2023-04-03T06:09:10;3.30;;;1.90;;
18249;SDS011;27980;52.126;5.572;2023-04-03T06:11:36;1.77;;;1.67;;
18249;SDS011;27980;52.126;5.572;2023-04-03T06:14:04;1.80;;;1.70;;
18249;SDS011;27980;52.126;5.572;2023-04-03T06:16:30;3.80;;;1.50;;
18249;SDS011;27980;52.126;5.572;2023-04-03T06:19:00;2.45;;;1.35;;
18249;SDS011;27980;52.126;5.572;2023-04-03T06:21:26;1.95;;;1.30;;
18249;SDS011;27980;52.126;5.572;2023-04-03T06:23:54;2.45;;;1.85;;
18249;SDS011;27980;52.126;5.572;2023-04-03T06:26:20;1.60;;;1.50;;
18249;SDS011;27980;52.126;5.572;2023-04-03T06:28:47;1.45;;;1.38;;
18249;SDS011;27980;52.126;5.572;2023-04-03T06:31:13;1.40;;;1.30;;
18249;SDS011;27980;52.126;5.572;2023-04-03T06:33:40;1.65;;;1.45;;
18249;SDS011;27980;52.126;5.572;2023-04-03T06:36:07;3.08;;;1.48;;
18249;SDS011;27980;52.126;5.572;2023-04-03T06:38:35;6.13;;;1.60;;
18249;SDS011;27980;52.126;5.572;2023-04-03T06:41:03;1.42;;;1.30;;
18249;SDS011;27980;52.126;5.572;2023-04-03T06:43:29;3.03;;;1.58;;
18249;SDS011;27980;52.126;5.572;2023-04-03T06:45:56;6.20;;;1.77;;
18249;SDS011;27980;52.126;5.572;2023-04-03T06:48:22;1.77;;;1.52;;
18249;SDS011;27980;52.126;5.572;2023-04-03T06:50:51;3.38;;;1.48;;
18249;SDS011;27980;52.126;5.572;2023-04-03T06:53:18;1.42;;;1.25;;
18249;SDS011;27980;52.126;5.572;2023-04-03T06:55:45;2.17;;;1.40;;
18249;SDS011;27980;52.126;5.572;2023-04-03T06:58:13;1.83;;;1.48;;
18249;SDS011;27980;52.126;5.572;2023-04-03T07:00:43;2.97;;;1.42;;
18249;SDS011;27980;52.126;5.572;2023-04-03T07:03:10;1.88;;;1.45;;
18249;SDS011;27980;52.126;5.572;2023-04-03T07:05:36;2.55;;;1.77;;
18249;SDS011;27980;52.126;5.572;2023-04-03T07:08:03;1.42;;;1.08;;
18249;SDS011;27980;52.126;5.572;2023-04-03T07:10:29;4.07;;;1.85;;
18249;SDS011;27980;52.126;5.572;2023-04-03T07:12:56;1.27;;;1.13;;
18249;SDS011;27980;52.126;5.572;2023-04-03T07:15:24;3.30;;;1.60;;
18249;SDS011;27980;52.126;5.572;2023-04-03T07:17:50;1.50;;;1.40;;
18249;SDS011;27980;52.126;5.572;2023-04-03T07:20:17;1.35;;;1.05;;
18249;SDS011;27980;52.126;5.572;2023-04-03T07:22:45;3.97;;;1.35;;
18249;SDS011;27980;52.126;5.572;2023-04-03T07:25:11;1.73;;;1.60;;
18249;SDS011;27980;52.126;5.572;2023-04-03T07:27:38;1.50;;;1.17;;
18249;SDS011;27980;52.126;5.572;2023-04-03T07:30:05;2.42;;;0.98;;
18249;SDS011;27980;52.126;5.572;2023-04-03T07:32:33;1.02;;;0.93;;
18249;SDS011;27980;52.126;5.572;2023-04-03T07:35:00;1.27;;;0.77;;
18249;SDS011;27980;52.126;5.572;2023-04-03T07:37:26;2.67;;;1.35;;
18249;SDS011;27980;52.126;5.572;2023-04-03T07:39:53;4.43;;;1.30;;
18249;SDS011;27980;52.126;5.572;2023-04-03T07:42:20;0.98;;;0.80;;
18249;SDS011;27980;52.126;5.572;2023-04-03T07:44:46;2.28;;;1.05;;
18249;SDS011;27980;52.126;5.572;2023-04-03T07:47:13;1.77;;;1.02;;
18249;SDS011;27980;52.126;5.572;2023-04-03T07:49:43;4.45;;;1.27;;
18249;SDS011;27980;52.126;5.572;2023-04-03T07:52:10;2.50;;;1.00;;
18249;SDS011;27980;52.126;5.572;2023-04-03T07:54:36;2.58;;;1.08;;
18249;SDS011;27980;52.126;5.572;2023-04-03T07:57:03;2.22;;;1.10;;
18249;SDS011;27980;52.126;5.572;2023-04-03T07:59:31;2.60;;;0.80;;
18249;SDS011;27980;52.126;5.572;2023-04-03T08:01:58;1.23;;;0.70;;
18249;SDS011;27980;52.126;5.572;2023-04-03T08:04:24;2.22;;;1.40;;
18249;SDS011;27980;52.126;5.572;2023-04-03T08:06:52;0.80;;;0.70;;
18249;SDS011;27980;52.126;5.572;2023-04-03T08:09:19;2.13;;;0.80;;
18249;SDS011;27980;52.126;5.572;2023-04-03T08:11:45;2.70;;;0.80;;
18249;SDS011;27980;52.126;5.572;2023-04-03T08:14:12;1.60;;;0.77;;
18249;SDS011;27980;52.126;5.572;2023-04-03T08:16:41;1.77;;;0.80;;
18249;SDS011;27980;52.126;5.572;2023-04-03T08:19:08;0.50;;;0.50;;
18249;SDS011;27980;52.126;5.572;2023-04-03T08:21:35;1.60;;;0.80;;
18249;SDS011;27980;52.126;5.572;2023-04-03T08:24:03;1.40;;;0.70;;
18249;SDS011;27980;52.126;5.572;2023-04-03T08:26:30;1.67;;;0.70;;
18249;SDS011;27980;52.126;5.572;2023-04-03T08:28:57;0.93;;;0.63;;
18249;SDS011;27980;52.126;5.572;2023-04-03T08:31:23;0.70;;;0.70;;
18249;SDS011;27980;52.126;5.572;2023-04-03T08:33:51;1.88;;;0.68;;
18249;SDS011;27980;52.126;5.572;2023-04-03T08:36:20;2.55;;;0.70;;
18249;SDS011;27980;52.126;5.572;2023-04-03T08:38:46;0.98;;;0.73;;
18249;SDS011;27980;52.126;5.572;2023-04-03T08:41:16;0.95;;;0.50;;
18249;SDS011;27980;52.126;5.572;2023-04-03T08:43:53;0.93;;;0.40;;
18249;SDS011;27980;52.126;5.572;2023-04-03T08:46:22;0.50;;;0.50;;
18249;SDS011;27980;52.126;5.572;2023-04-03T08:48:51;1.58;;;0.70;;
18249;SDS011;27980;52.126;5.572;2023-04-03T08:51:18;1.65;;;0.60;;
18249;SDS011;27980;52.126;5.572;2023-04-03T08:53:49;1.17;;;0.70;;
18249;SDS011;27980;52.126;5.572;2023-04-03T08:56:23;2.38;;;0.77;;
18249;SDS011;27980;52.126;5.572;2023-04-03T08:58:51;1.30;;;0.60;;
18249;SDS011;27980;52.126;5.572;2023-04-03T09:01:20;0.90;;;0.75;;
18249;SDS011;27980;52.126;5.572;2023-04-03T09:03:47;0.73;;;0.50;;
18249;SDS011;27980;52.126;5.572;2023-04-03T09:06:14;0.38;;;0.35;;
18249;SDS011;27980;52.126;5.572;2023-04-03T09:08:43;0.70;;;0.50;;
18249;SDS011;27980;52.126;5.572;2023-04-03T09:11:12;1.75;;;0.55;;
18249;SDS011;27980;52.126;5.572;2023-04-03T09:13:46;1.95;;;0.55;;
18249;SDS011;27980;52.126;5.572;2023-04-03T09:16:18;0.95;;;0.40;;
18249;SDS011;27980;52.126;5.572;2023-04-03T09:18:54;0.82;;;0.40;;
18249;SDS011;27980;52.126;5.572;2023-04-03T09:21:24;1.45;;;0.60;;
18249;SDS011;27980;52.126;5.572;2023-04-03T09:23:52;1.00;;;0.40;;
18249;SDS011;27980;52.126;5.572;2023-04-03T09:26:21;0.88;;;0.50;;
18249;SDS011;27980;52.126;5.572;2023-04-03T09:28:51;0.98;;;0.50;;
18249;SDS011;27980;52.126;5.572;2023-04-03T09:31:20;0.40;;;0.35;;
18249;SDS011;27980;52.126;5.572;2023-04-03T09:33:47;2.13;;;0.40;;
18249;SDS011;27980;52.126;5.572;2023-04-03T09:36:22;0.47;;;0.30;;
18249;SDS011;27980;52.126;5.572;2023-04-03T09:39:03;0.50;;;0.40;;
18249;SDS011;27980;52.126;5.572;2023-04-03T09:41:30;0.70;;;0.38;;
18249;SDS011;27980;52.126;5.572;2023-04-03T09:44:00;0.60;;;0.20;;
18249;SDS011;27980;52.126;5.572;2023-04-03T09:46:29;1.17;;;0.30;;
18249;SDS011;27980;52.126;5.572;2023-04-03T09:48:59;0.30;;;0.30;;
18249;SDS011;27980;52.126;5.572;2023-04-03T09:51:26;0.57;;;0.40;;
18249;SDS011;27980;52.126;5.572;2023-04-03T09:53:54;0.90;;;0.40;;
18249;SDS011;27980;52.126;5.572;2023-04-03T09:56:22;0.95;;;0.50;;
18249;SDS011;27980;52.126;5.572;2023-04-03T09:58:51;0.68;;;0.60;;
18249;SDS011;27980;52.126;5.572;2023-04-03T10:01:24;0.57;;;0.43;;
18249;SDS011;27980;52.126;5.572;2023-04-03T10:04:02;0.98;;;0.32;;
18249;SDS011;27980;52.126;5.572;2023-04-03T10:06:29;1.00;;;0.30;;
18249;SDS011;27980;52.126;5.572;2023-04-03T10:08:58;1.10;;;0.20;;
18249;SDS011;27980;52.126;5.572;2023-04-03T10:11:25;0.30;;;0.30;;
18249;SDS011;27980;52.126;5.572;2023-04-03T10:13:53;1.23;;;0.30;;
18249;SDS011;27980;52.126;5.572;2023-04-03T10:16:21;0.40;;;0.30;;
18249;SDS011;27980;52.126;5.572;2023-04-03T10:18:52;1.67;;;0.43;;
18249;SDS011;27980;52.126;5.572;2023-04-03T10:21:26;0.70;;;0.30;;
18249;SDS011;27980;52.126;5.572;2023-04-03T10:23:57;1.35;;;0.40;;
18249;SDS011;27980;52.126;5.572;2023-04-03T10:26:29;1.55;;;0.40;;
18249;SDS011;27980;52.126;5.572;2023-04-03T10:29:00;0.40;;;0.40;;
18249;SDS011;27980;52.126;5.572;2023-04-03T10:31:29;0.90;;;0.30;;
18249;SDS011;27980;52.126;5.572;2023-04-03T10:34:01;0.63;;;0.35;;
18249;SDS011;27980;52.126;5.572;2023-04-03T10:36:36;1.98;;;0.40;;
18249;SDS011;27980;52.126;5.572;2023-04-03T10:39:06;1.40;;;0.55;;
18249;SDS011;27980;52.126;5.572;2023-04-03T10:41:39;0.38;;;0.30;;
18249;SDS011;27980;52.126;5.572;2023-04-03T10:44:14;3.92;;;0.55;;
18249;SDS011;27980;52.126;5.572;2023-04-03T10:46:43;0.40;;;0.40;;
18249;SDS011;27980;52.126;5.572;2023-04-03T10:49:15;1.13;;;0.43;;
18249;SDS011;27980;52.126;5.572;2023-04-03T10:51:45;0.40;;;0.40;;
18249;SDS011;27980;52.126;5.572;2023-04-03T10:54:15;1.77;;;0.40;;
18249;SDS011;27980;52.126;5.572;2023-04-03T10:56:44;0.93;;;0.47;;
18249;SDS011;27980;52.126;5.572;2023-04-03T10:59:16;2.65;;;0.60;;
18249;SDS011;27980;52.126;5.572;2023-04-03T11:01:45;0.35;;;0.30;;
18249;SDS011;27980;52.126;5.572;2023-04-03T11:04:12;1.45;;;0.50;;
18249;SDS011;27980;52.126;5.572;2023-04-03T11:06:43;0.60;;;0.40;;
18249;SDS011;27980;52.126;5.572;2023-04-03T11:09:16;1.92;;;0.40;;
18249;SDS011;27980;52.126;5.572;2023-04-03T11:11:45;1.13;;;0.57;;
18249;SDS011;27980;52.126;5.572;2023-04-03T11:14:15;0.57;;;0.43;;
18249;SDS011;27980;52.126;5.572;2023-04-03T11:16:45;0.75;;;0.55;;
18249;SDS011;27980;52.126;5.572;2023-04-03T11:19:14;0.38;;;0.38;;
18249;SDS011;27980;52.126;5.572;2023-04-03T11:21:48;0.55;;;0.55;;
18249;SDS011;27980;52.126;5.572;2023-04-03T11:24:20;0.73;;;0.40;;
18249;SDS011;27980;52.126;5.572;2023-04-03T11:26:48;0.40;;;0.38;;
18249;SDS011;27980;52.126;5.572;2023-04-03T11:29:21;2.30;;;0.50;;
18249;SDS011;27980;52.126;5.572;2023-04-03T11:31:55;0.65;;;0.50;;
18249;SDS011;27980;52.126;5.572;2023-04-03T11:34:26;1.08;;;0.40;;
18249;SDS011;27980;52.126;5.572;2023-04-03T11:37:00;2.60;;;0.50;;
18249;SDS011;27980;52.126;5.572;2023-04-03T11:39:28;0.85;;;0.50;;
18249;SDS011;27980;52.126;5.572;2023-04-03T11:41:56;0.50;;;0.50;;
18249;SDS011;27980;52.126;5.572;2023-04-03T11:44:39;0.65;;;0.40;;
18249;SDS011;27980;52.126;5.572;2023-04-03T11:47:07;0.32;;;0.32;;
18249;SDS011;27980;52.126;5.572;2023-04-03T11:49:50;0.80;;;0.60;;
18249;SDS011;27980;52.126;5.572;2023-04-03T11:55:00;1.67;;;0.60;;
18249;SDS011;27980;52.126;5.572;2023-04-03T11:57:43;0.55;;;0.50;;
18249;SDS011;27980;52.126;5.572;2023-04-03T12:02:55;1.73;;;0.85;;
18249;SDS011;27980;52.126;5.572;2023-04-03T12:05:25;0.50;;;0.40;;
18249;SDS011;27980;52.126;5.572;2023-04-03T12:10:34;0.73;;;0.65;;
18249;SDS011;27980;52.126;5.572;2023-04-03T12:13:00;0.60;;;0.60;;
18249;SDS011;27980;52.126;5.572;2023-04-03T12:18:31;2.50;;;0.60;;
18249;SDS011;27980;52.126;5.572;2023-04-03T12:20:58;2.17;;;0.60;;
18249;SDS011;27980;52.126;5.572;2023-04-03T12:23:31;2.10;;;0.73;;
18249;SDS011;27980;52.126;5.572;2023-04-03T12:26:18;0.60;;;0.60;;
18249;SDS011;27980;52.126;5.572;2023-04-03T12:28:46;0.75;;;0.65;;
18249;SDS011;27980;52.126;5.572;2023-04-03T12:31:14;1.23;;;0.70;;
18249;SDS011;27980;52.126;5.572;2023-04-03T12:33:50;1.00;;;0.60;;
18249;SDS011;27980;52.126;5.572;2023-04-03T12:36:23;0.95;;;0.60;;
18249;SDS011;27980;52.126;5.572;2023-04-03T12:38:56;3.65;;;0.60;;
18249;SDS011;27980;52.126;5.572;2023-04-03T12:41:28;1.90;;;0.57;;
18249;SDS011;27980;52.126;5.572;2023-04-03T12:46:42;1.35;;;0.65;;
18249;SDS011;27980;52.126;5.572;2023-04-03T12:49:24;1.10;;;0.60;;
18249;SDS011;27980;52.126;5.572;2023-04-03T12:51:52;1.67;;;0.70;;
18249;SDS011;27980;52.126;5.572;2023-04-03T12:54:20;0.95;;;0.50;;
18249;SDS011;27980;52.126;5.572;2023-04-03T12:56:50;1.95;;;0.70;;
18249;SDS011;27980;52.126;5.572;2023-04-03T12:59:18;2.10;;;0.60;;
18249;SDS011;27980;52.126;5.572;2023-04-03T13:01:52;0.52;;;0.52;;
18249;SDS011;27980;52.126;5.572;2023-04-03T13:04:19;0.63;;;0.60;;
18249;SDS011;27980;52.126;5.572;2023-04-03T13:06:46;4.43;;;0.70;;
18249;SDS011;27980;52.126;5.572;2023-04-03T13:09:19;0.52;;;0.52;;
18249;SDS011;27980;52.126;5.572;2023-04-03T13:11:46;1.00;;;0.50;;
18249;SDS011;27980;52.126;5.572;2023-04-03T13:14:17;1.27;;;0.50;;
18249;SDS011;27980;52.126;5.572;2023-04-03T13:16:52;1.13;;;0.60;;
18249;SDS011;27980;52.126;5.572;2023-04-03T13:19:18;0.98;;;0.50;;
18249;SDS011;27980;52.126;5.572;2023-04-03T13:21:45;0.50;;;0.50;;
18249;SDS011;27980;52.126;5.572;2023-04-03T13:24:12;0.70;;;0.50;;
18249;SDS011;27980;52.126;5.572;2023-04-03T13:26:39;2.63;;;0.70;;
18249;SDS011;27980;52.126;5.572;2023-04-03T13:29:07;1.45;;;0.80;;
18249;SDS011;27980;52.126;5.572;2023-04-03T13:31:36;2.58;;;0.80;;
18249;SDS011;27980;52.126;5.572;2023-04-03T13:34:03;1.17;;;0.65;;
18249;SDS011;27980;52.126;5.572;2023-04-03T13:36:32;1.63;;;0.70;;
18249;SDS011;27980;52.126;5.572;2023-04-03T13:39:02;1.45;;;0.80;;
18249;SDS011;27980;52.126;5.572;2023-04-03T13:41:30;2.08;;;0.65;;
18249;SDS011;27980;52.126;5.572;2023-04-03T13:43:57;0.95;;;0.60;;
18249;SDS011;27980;52.126;5.572;2023-04-03T13:46:41;3.80;;;1.20;;
18249;SDS011;27980;52.126;5.572;2023-04-03T13:49:17;1.80;;;0.55;;
18249;SDS011;27980;52.126;5.572;2023-04-03T13:51:43;1.63;;;0.70;;
18249;SDS011;27980;52.126;5.572;2023-04-03T13:54:16;1.83;;;0.98;;
18249;SDS011;27980;52.126;5.572;2023-04-03T13:56:43;1.85;;;1.20;;
18249;SDS011;27980;52.126;5.572;2023-04-03T13:59:21;0.52;;;0.52;;
18249;SDS011;27980;52.126;5.572;2023-04-03T14:01:50;0.60;;;0.60;;
18249;SDS011;27980;52.126;5.572;2023-04-03T14:04:18;0.82;;;0.60;;
18249;SDS011;27980;52.126;5.572;2023-04-03T14:06:47;2.80;;;0.70;;
18249;SDS011;27980;52.126;5.572;2023-04-03T14:09:15;1.52;;;0.70;;
18249;SDS011;27980;52.126;5.572;2023-04-03T14:11:43;2.20;;;1.10;;
18249;SDS011;27980;52.126;5.572;2023-04-03T14:14:12;1.45;;;1.08;;
18249;SDS011;27980;52.126;5.572;2023-04-03T14:16:40;3.60;;;1.25;;
18249;SDS011;27980;52.126;5.572;2023-04-03T14:19:11;2.17;;;0.98;;
18249;SDS011;27980;52.126;5.572;2023-04-03T14:21:40;0.63;;;0.55;;
18249;SDS011;27980;52.126;5.572;2023-04-03T14:24:08;1.38;;;0.70;;
18249;SDS011;27980;52.126;5.572;2023-04-03T14:26:37;0.70;;;0.70;;
18249;SDS011;27980;52.126;5.572;2023-04-03T14:29:03;2.05;;;0.80;;
18249;SDS011;27980;52.126;5.572;2023-04-03T14:31:30;1.50;;;0.95;;
18249;SDS011;27980;52.126;5.572;2023-04-03T14:33:56;1.33;;;0.73;;
18249;SDS011;27980;52.126;5.572;2023-04-03T14:36:25;1.08;;;0.80;;
18249;SDS011;27980;52.126;5.572;2023-04-03T14:38:55;2.33;;;0.70;;
18249;SDS011;27980;52.126;5.572;2023-04-03T14:41:22;1.90;;;0.88;;
18249;SDS011;27980;52.126;5.572;2023-04-03T14:43:49;1.95;;;1.13;;
18249;SDS011;27980;52.126;5.572;2023-04-03T14:46:17;2.55;;;1.10;;
18249;SDS011;27980;52.126;5.572;2023-04-03T14:48:44;2.88;;;0.90;;
18249;SDS011;27980;52.126;5.572;2023-04-03T14:51:11;1.25;;;0.90;;
18249;SDS011;27980;52.126;5.572;2023-04-03T14:53:40;2.05;;;0.90;;
18249;SDS011;27980;52.126;5.572;2023-04-03T14:56:10;1.33;;;0.80;;
18249;SDS011;27980;52.126;5.572;2023-04-03T14:58:37;2.70;;;1.50;;
18249;SDS011;27980;52.126;5.572;2023-04-03T15:01:04;1.27;;;0.70;;
18249;SDS011;27980;52.126;5.572;2023-04-03T15:03:31;1.92;;;0.80;;
18249;SDS011;27980;52.126;5.572;2023-04-03T15:05:58;4.15;;;1.08;;
18249;SDS011;27980;52.126;5.572;2023-04-03T15:08:25;3.50;;;0.85;;
18249;SDS011;27980;52.126;5.572;2023-04-03T15:10:55;4.22;;;1.00;;